sim
Sign-in with your pilot id or email,
or register
Callsign
Passwort

Schedule Details

Flight Number: DLH2206 (1)
Departure: Munich Airport (EDDM) at 07:15
Arrival: Cologne Bonn Airport (EDDK) at 08:20
Route: Lufthansa Passenger Schedule. Enter filed route here before submitting Pirep.

Weather Information
Getting current METAR information for EDDM 250250Z 17004KT 140V210 9999 -RA FEW008 SCT040 13/12 Q1001 TEMPO RA BKN008
Getting current METAR information for EDDK 250250Z 16008KT 120V180 9999 FEW017 SCT032 12/10 Q0998 NOSIG

Schedule Frequency

Route Map